sensor_id;sensor_type;location;lat;lon;timestamp;pressure;altitude;pressure_sealevel;temperature;humidity
10587;BME280;5341;47.606;7.576;2022-12-29T00:00:45;98589.66;;;9.45;63.86
10587;BME280;5341;47.606;7.576;2022-12-29T00:03:13;98583.31;;;9.46;64.19
10587;BME280;5341;47.606;7.576;2022-12-29T00:05:41;98582.28;;;9.47;64.33
10587;BME280;5341;47.606;7.576;2022-12-29T00:08:16;98580.44;;;9.48;63.78
10587;BME280;5341;47.606;7.576;2022-12-29T00:10:46;98578.59;;;9.48;64.46
10587;BME280;5341;47.606;7.576;2022-12-29T00:13:24;98575.94;;;9.48;64.17
10587;BME280;5341;47.606;7.576;2022-12-29T00:16:12;98575.94;;;9.48;64.31
10587;BME280;5341;47.606;7.576;2022-12-29T00:18:42;98575.94;;;9.48;63.92
10587;BME280;5341;47.606;7.576;2022-12-29T00:21:15;98566.09;;;9.49;64.41
10587;BME280;5341;47.606;7.576;2022-12-29T00:24:04;98574.09;;;9.49;64.37
10587;BME280;5341;47.606;7.576;2022-12-29T00:26:54;98572.06;;;9.51;64.41
10587;BME280;5341;47.606;7.576;2022-12-29T00:29:50;98578.44;;;9.50;64.58
10587;BME280;5341;47.606;7.576;2022-12-29T00:32:38;98570.41;;;9.50;64.46
10587;BME280;5341;47.606;7.576;2022-12-29T00:35:37;98565.91;;;9.50;64.59
10587;BME280;5341;47.606;7.576;2022-12-29T00:38:13;98566.91;;;9.49;64.27
10587;BME280;5341;47.606;7.576;2022-12-29T00:41:02;98561.59;;;9.49;64.32
10587;BME280;5341;47.606;7.576;2022-12-29T00:43:49;98559.75;;;9.50;64.28
10587;BME280;5341;47.606;7.576;2022-12-29T00:46:40;98560.75;;;9.49;64.47
10587;BME280;5341;47.606;7.576;2022-12-29T00:49:10;98557.06;;;9.50;64.37
10587;BME280;5341;47.606;7.576;2022-12-29T00:51:58;98554.41;;;9.50;64.42
10587;BME280;5341;47.606;7.576;2022-12-29T00:54:29;98551.75;;;9.50;64.30
10587;BME280;5341;47.606;7.576;2022-12-29T00:57:01;98553.41;;;9.51;64.58
10587;BME280;5341;47.606;7.576;2022-12-29T00:59:38;98553.41;;;9.51;64.67
10587;BME280;5341;47.606;7.576;2022-12-29T01:02:18;98549.72;;;9.52;64.25
10587;BME280;5341;47.606;7.576;2022-12-29T01:04:53;98561.22;;;9.52;64.19
10587;BME280;5341;47.606;7.576;2022-12-29T01:07:26;98555.88;;;9.52;64.73
10587;BME280;5341;47.606;7.576;2022-12-29T01:10:02;98561.84;;;9.54;64.32
10587;BME280;5341;47.606;7.576;2022-12-29T01:12:49;98557.34;;;9.55;64.56
10587;BME280;5341;47.606;7.576;2022-12-29T01:15:27;98572.34;;;9.56;64.21
10587;BME280;5341;47.606;7.576;2022-12-29T01:18:04;98571.53;;;9.55;65.16
10587;BME280;5341;47.606;7.576;2022-12-29T01:20:40;98577.53;;;9.57;64.66
10587;BME280;5341;47.606;7.576;2022-12-29T01:23:19;98571.34;;;9.57;64.83
10587;BME280;5341;47.606;7.576;2022-12-29T01:25:52;98571.34;;;9.57;65.23
10587;BME280;5341;47.606;7.576;2022-12-29T01:28:31;98588.38;;;9.56;65.08
10587;BME280;5341;47.606;7.576;2022-12-29T01:31:06;98577.69;;;9.56;64.63
10587;BME280;5341;47.606;7.576;2022-12-29T01:33:44;98580.34;;;9.56;65.07
10587;BME280;5341;47.606;7.576;2022-12-29T01:36:29;98585.69;;;9.56;65.05
10587;BME280;5341;47.606;7.576;2022-12-29T01:39:11;98587.34;;;9.57;64.97
10587;BME280;5341;47.606;7.576;2022-12-29T01:41:55;98589.19;;;9.56;65.37
10587;BME280;5341;47.606;7.576;2022-12-29T01:44:53;98597.22;;;9.56;65.27
10587;BME280;5341;47.606;7.576;2022-12-29T01:47:37;98585.06;;;9.54;64.98
10587;BME280;5341;47.606;7.576;2022-12-29T01:50:19;98584.88;;;9.55;64.95
10587;BME280;5341;47.606;7.576;2022-12-29T01:52:58;98584.88;;;9.55;64.96
10587;BME280;5341;47.606;7.576;2022-12-29T01:55:46;98593.56;;;9.57;65.35
10587;BME280;5341;47.606;7.576;2022-12-29T01:58:24;98581.19;;;9.56;65.35
10587;BME280;5341;47.606;7.576;2022-12-29T02:01:04;98584.69;;;9.57;65.59
10587;BME280;5341;47.606;7.576;2022-12-29T02:03:47;98586.53;;;9.56;65.47
10587;BME280;5341;47.606;7.576;2022-12-29T02:06:34;98589.03;;;9.58;65.33
10587;BME280;5341;47.606;7.576;2022-12-29T02:09:09;98591.88;;;9.56;65.28
10587;BME280;5341;47.606;7.576;2022-12-29T02:11:42;98581.03;;;9.58;65.08
10587;BME280;5341;47.606;7.576;2022-12-29T02:14:31;98588.22;;;9.57;65.51
10587;BME280;5341;47.606;7.576;2022-12-29T02:17:16;98583.72;;;9.58;65.37
10587;BME280;5341;47.606;7.576;2022-12-29T02:23:34;98581.19;;;9.56;65.18
10587;BME280;5341;47.606;7.576;2022-12-29T02:29:56;98589.19;;;9.56;65.86
10587;BME280;5341;47.606;7.576;2022-12-29T02:32:44;98576.03;;;9.55;65.26
10587;BME280;5341;47.606;7.576;2022-12-29T02:35:25;98578.69;;;9.55;65.64
10587;BME280;5341;47.606;7.576;2022-12-29T02:38:27;98571.72;;;9.54;65.48
10587;BME280;5341;47.606;7.576;2022-12-29T02:41:19;98574.38;;;9.54;65.29
10587;BME280;5341;47.606;7.576;2022-12-29T02:44:12;98569.03;;;9.54;65.46
10587;BME280;5341;47.606;7.576;2022-12-29T02:46:55;98564.72;;;9.53;65.61
10587;BME280;5341;47.606;7.576;2022-12-29T02:49:32;98557.53;;;9.53;65.68
10587;BME280;5341;47.606;7.576;2022-12-29T02:52:08;98569.03;;;9.54;66.04
10587;BME280;5341;47.606;7.576;2022-12-29T02:54:44;98566.38;;;9.54;65.73
10587;BME280;5341;47.606;7.576;2022-12-29T02:57:29;98563.50;;;9.55;65.56
10587;BME280;5341;47.606;7.576;2022-12-29T03:00:07;98560.03;;;9.55;65.89
10587;BME280;5341;47.606;7.576;2022-12-29T03:03:04;98571.53;;;9.55;65.67
10587;BME280;5341;47.606;7.576;2022-12-29T03:06:20;98557.34;;;9.55;65.37
10587;BME280;5341;47.606;7.576;2022-12-29T03:09:14;98570.69;;;9.55;65.93
10587;BME280;5341;47.606;7.576;2022-12-29T03:12:00;98556.53;;;9.54;66.04
10587;BME280;5341;47.606;7.576;2022-12-29T03:14:57;98563.50;;;9.55;65.36
10587;BME280;5341;47.606;7.576;2022-12-29T03:17:50;98565.34;;;9.55;65.45
10587;BME280;5341;47.606;7.576;2022-12-29T03:20:24;98563.50;;;9.55;65.69
10587;BME280;5341;47.606;7.576;2022-12-29T03:23:11;98561.84;;;9.54;66.06
10587;BME280;5341;47.606;7.576;2022-12-29T03:25:51;98549.34;;;9.55;65.93
10587;BME280;5341;47.606;7.576;2022-12-29T03:28:28;98552.84;;;9.55;65.93
10587;BME280;5341;47.606;7.576;2022-12-29T03:31:05;98544.84;;;9.55;66.28
10587;BME280;5341;47.606;7.576;2022-12-29T03:33:46;98541.16;;;9.56;66.16
10587;BME280;5341;47.606;7.576;2022-12-29T03:36:23;98527.66;;;9.58;65.85
10587;BME280;5341;47.606;7.576;2022-12-29T03:39:02;98520.63;;;9.57;65.76
10587;BME280;5341;47.606;7.576;2022-12-29T03:41:40;98531.28;;;9.57;65.88
10587;BME280;5341;47.606;7.576;2022-12-29T03:44:19;98524.97;;;9.58;65.90
10587;BME280;5341;47.606;7.576;2022-12-29T03:46:55;98526.81;;;9.57;66.03
10587;BME280;5341;47.606;7.576;2022-12-29T03:49:27;98522.31;;;9.58;66.04
10587;BME280;5341;47.606;7.576;2022-12-29T03:52:07;98522.31;;;9.58;66.16
10587;BME280;5341;47.606;7.576;2022-12-29T03:54:54;98517.78;;;9.58;65.80
10587;BME280;5341;47.606;7.576;2022-12-29T03:57:28;98523.97;;;9.59;65.97
10587;BME280;5341;47.606;7.576;2022-12-29T04:00:12;98519.44;;;9.59;65.76
10587;BME280;5341;47.606;7.576;2022-12-29T04:02:47;98523.97;;;9.59;66.26
10587;BME280;5341;47.606;7.576;2022-12-29T04:05:23;98526.44;;;9.60;66.46
10587;BME280;5341;47.606;7.576;2022-12-29T04:08:03;98520.28;;;9.60;66.10
10587;BME280;5341;47.606;7.576;2022-12-29T04:10:34;98521.09;;;9.60;66.07
10587;BME280;5341;47.606;7.576;2022-12-29T04:13:09;98522.75;;;9.61;66.28
10587;BME280;5341;47.606;7.576;2022-12-29T04:15:50;98526.25;;;9.62;65.98
10587;BME280;5341;47.606;7.576;2022-12-29T04:18:21;98522.59;;;9.63;66.05
10587;BME280;5341;47.606;7.576;2022-12-29T04:20:53;98508.41;;;9.62;65.89
10587;BME280;5341;47.606;7.576;2022-12-29T04:23:36;98510.06;;;9.63;66.13
10587;BME280;5341;47.606;7.576;2022-12-29T04:26:16;98510.06;;;9.63;66.52
10587;BME280;5341;47.606;7.576;2022-12-29T04:29:03;98508.41;;;9.62;66.24
10587;BME280;5341;47.606;7.576;2022-12-29T04:32:00;98507.38;;;9.63;66.07
10587;BME280;5341;47.606;7.576;2022-12-29T04:34:36;98513.56;;;9.64;66.61
10587;BME280;5341;47.606;7.576;2022-12-29T04:37:22;98518.06;;;9.63;66.34
10587;BME280;5341;47.606;7.576;2022-12-29T04:39:57;98519.91;;;9.63;66.58
10587;BME280;5341;47.606;7.576;2022-12-29T04:42:44;98516.22;;;9.64;66.23
10587;BME280;5341;47.606;7.576;2022-12-29T04:45:19;98514.38;;;9.64;66.34
10587;BME280;5341;47.606;7.576;2022-12-29T04:48:00;98504.53;;;9.65;66.33
10587;BME280;5341;47.606;7.576;2022-12-29T04:51:06;98498.38;;;9.64;66.24
10587;BME280;5341;47.606;7.576;2022-12-29T04:53:40;98496.34;;;9.66;66.54
10587;BME280;5341;47.606;7.576;2022-12-29T04:56:07;98497.16;;;9.67;66.01
10587;BME280;5341;47.606;7.576;2022-12-29T04:58:39;98482.78;;;9.68;65.93
10587;BME280;5341;47.606;7.576;2022-12-29T05:01:10;98490.66;;;9.69;65.91
10587;BME280;5341;47.606;7.576;2022-12-29T05:03:54;98485.94;;;9.72;65.97
10587;BME280;5341;47.606;7.576;2022-12-29T05:06:34;98473.88;;;9.76;65.77
10587;BME280;5341;47.606;7.576;2022-12-29T05:09:03;98484.84;;;9.81;65.31
10587;BME280;5341;47.606;7.576;2022-12-29T05:11:33;98481.88;;;9.90;65.49
10587;BME280;5341;47.606;7.576;2022-12-29T05:14:14;98482.81;;;9.97;65.22
10587;BME280;5341;47.606;7.576;2022-12-29T05:16:57;98477.72;;;10.03;65.24
10587;BME280;5341;47.606;7.576;2022-12-29T05:19:28;98478.47;;;10.11;65.02
10587;BME280;5341;47.606;7.576;2022-12-29T05:22:22;98477.56;;;10.19;64.52
10587;BME280;5341;47.606;7.576;2022-12-29T05:25:01;98475.16;;;10.24;64.50
10587;BME280;5341;47.606;7.576;2022-12-29T05:27:45;98478.09;;;10.29;63.96
10587;BME280;5341;47.606;7.576;2022-12-29T05:30:47;98476.53;;;10.35;63.58
10587;BME280;5341;47.606;7.576;2022-12-29T05:33:19;98467.75;;;10.41;63.06
10587;BME280;5341;47.606;7.576;2022-12-29T05:35:49;98469.94;;;10.52;62.79
10587;BME280;5341;47.606;7.576;2022-12-29T05:38:24;98474.97;;;10.62;62.59
10587;BME280;5341;47.606;7.576;2022-12-29T05:41:03;98471.38;;;10.69;61.84
10587;BME280;5341;47.606;7.576;2022-12-29T05:44:00;98468.56;;;10.77;62.29
10587;BME280;5341;47.606;7.576;2022-12-29T05:46:51;98460.59;;;10.84;61.64
10587;BME280;5341;47.606;7.576;2022-12-29T05:50:01;98469.53;;;10.91;61.14
10587;BME280;5341;47.606;7.576;2022-12-29T05:52:59;98457.22;;;10.97;61.33
10587;BME280;5341;47.606;7.576;2022-12-29T05:55:43;98458.28;;;11.02;61.00
10587;BME280;5341;47.606;7.576;2022-12-29T05:58:24;98459.81;;;11.11;61.35
10587;BME280;5341;47.606;7.576;2022-12-29T06:01:05;98458.88;;;11.19;61.15
10587;BME280;5341;47.606;7.576;2022-12-29T06:03:43;98452.09;;;11.23;60.86
10587;BME280;5341;47.606;7.576;2022-12-29T06:06:32;98449.03;;;11.26;60.44
10587;BME280;5341;47.606;7.576;2022-12-29T06:09:21;98441.66;;;11.28;60.24
10587;BME280;5341;47.606;7.576;2022-12-29T06:11:57;98453.81;;;11.31;60.37
10587;BME280;5341;47.606;7.576;2022-12-29T06:14:42;98450.72;;;11.34;60.43
10587;BME280;5341;47.606;7.576;2022-12-29T06:17:18;98449.50;;;11.36;60.01
10587;BME280;5341;47.606;7.576;2022-12-29T06:19:59;98441.13;;;11.39;60.34
10587;BME280;5341;47.606;7.576;2022-12-29T06:22:37;98442.38;;;11.43;59.82
10587;BME280;5341;47.606;7.576;2022-12-29T06:25:09;98447.53;;;11.45;59.99
10587;BME280;5341;47.606;7.576;2022-12-29T06:27:51;98448.16;;;11.47;60.00
10587;BME280;5341;47.606;7.576;2022-12-29T06:30:25;98444.44;;;11.48;59.87
10587;BME280;5341;47.606;7.576;2022-12-29T06:33:04;98441.56;;;11.50;59.71
10587;BME280;5341;47.606;7.576;2022-12-29T06:35:44;98438.91;;;11.50;59.47
10587;BME280;5341;47.606;7.576;2022-12-29T06:38:21;98438.91;;;11.50;59.48
10587;BME280;5341;47.606;7.576;2022-12-29T06:40:53;98442.22;;;11.52;59.95
10587;BME280;5341;47.606;7.576;2022-12-29T06:43:57;98451.09;;;11.52;59.98
10587;BME280;5341;47.606;7.576;2022-12-29T06:47:00;98443.06;;;11.52;59.30
10587;BME280;5341;47.606;7.576;2022-12-29T06:49:37;98454.78;;;11.51;59.60
10587;BME280;5341;47.606;7.576;2022-12-29T06:52:36;98448.22;;;11.54;59.69
10587;BME280;5341;47.606;7.576;2022-12-29T06:55:23;98446.34;;;11.54;59.55
10587;BME280;5341;47.606;7.576;2022-12-29T06:58:10;98449.66;;;11.56;59.40
10587;BME280;5341;47.606;7.576;2022-12-29T07:00:47;98458.13;;;11.60;59.34
10587;BME280;5341;47.606;7.576;2022-12-29T07:03:42;98457.94;;;11.61;59.60
10587;BME280;5341;47.606;7.576;2022-12-29T07:06:33;98462.09;;;11.64;59.46
10587;BME280;5341;47.606;7.576;2022-12-29T07:09:13;98465.38;;;11.66;59.64
10587;BME280;5341;47.606;7.576;2022-12-29T07:11:46;98461.88;;;11.65;59.21
10587;BME280;5341;47.606;7.576;2022-12-29T07:14:21;98474.06;;;11.68;58.83
10587;BME280;5341;47.606;7.576;2022-12-29T07:16:54;98476.97;;;11.73;58.76
10587;BME280;5341;47.606;7.576;2022-12-29T07:19:29;98478.44;;;11.76;58.88
10587;BME280;5341;47.606;7.576;2022-12-29T07:22:06;98479.88;;;11.78;58.96
10587;BME280;5341;47.606;7.576;2022-12-29T07:24:38;98485.72;;;11.82;58.78
10587;BME280;5341;47.606;7.576;2022-12-29T07:27:07;98495.19;;;11.84;58.76
10587;BME280;5341;47.606;7.576;2022-12-29T07:29:38;98498.34;;;11.88;58.88
10587;BME280;5341;47.606;7.576;2022-12-29T07:32:06;98488.25;;;11.90;58.93
10587;BME280;5341;47.606;7.576;2022-12-29T07:34:34;98498.56;;;11.93;58.61
10587;BME280;5341;47.606;7.576;2022-12-29T07:37:03;98485.56;;;11.96;58.93
10587;BME280;5341;47.606;7.576;2022-12-29T07:39:32;98505.63;;;12.00;58.78
10587;BME280;5341;47.606;7.576;2022-12-29T07:42:12;98497.38;;;12.02;58.17
10587;BME280;5341;47.606;7.576;2022-12-29T07:44:45;98493.47;;;12.05;58.57
10587;BME280;5341;47.606;7.576;2022-12-29T07:47:18;98506.88;;;12.05;58.72
10587;BME280;5341;47.606;7.576;2022-12-29T07:49:51;98503.16;;;12.06;58.22
10587;BME280;5341;47.606;7.576;2022-12-29T07:52:19;98510.78;;;12.09;58.58
10587;BME280;5341;47.606;7.576;2022-12-29T07:54:52;98520.50;;;12.10;58.59
10587;BME280;5341;47.606;7.576;2022-12-29T07:57:24;98518.47;;;12.12;58.97
10587;BME280;5341;47.606;7.576;2022-12-29T07:59:55;98521.97;;;12.12;59.06
10587;BME280;5341;47.606;7.576;2022-12-29T08:02:27;98512.91;;;12.13;58.36
10587;BME280;5341;47.606;7.576;2022-12-29T08:04:57;98519.09;;;12.14;58.77
10587;BME280;5341;47.606;7.576;2022-12-29T08:07:27;98518.88;;;12.15;58.31
10587;BME280;5341;47.606;7.576;2022-12-29T08:10:00;98526.72;;;12.17;59.03
10587;BME280;5341;47.606;7.576;2022-12-29T08:12:32;98515.81;;;12.18;58.46
10587;BME280;5341;47.606;7.576;2022-12-29T08:15:07;98525.50;;;12.19;58.82
10587;BME280;5341;47.606;7.576;2022-12-29T08:17:37;98532.72;;;12.19;58.61
10587;BME280;5341;47.606;7.576;2022-12-29T08:20:06;98539.72;;;12.20;58.67
10587;BME280;5341;47.606;7.576;2022-12-29T08:22:37;98550.25;;;12.21;59.17
10587;BME280;5341;47.606;7.576;2022-12-29T08:25:08;98552.09;;;12.21;58.92
10587;BME280;5341;47.606;7.576;2022-12-29T08:27:42;98560.16;;;12.21;58.97
10587;BME280;5341;47.606;7.576;2022-12-29T08:30:12;98559.94;;;12.22;58.78
10587;BME280;5341;47.606;7.576;2022-12-29T08:32:42;98559.78;;;12.24;59.06
10587;BME280;5341;47.606;7.576;2022-12-29T08:35:14;98563.28;;;12.24;58.73
10587;BME280;5341;47.606;7.576;2022-12-29T08:37:48;98564.09;;;12.25;58.97
10587;BME280;5341;47.606;7.576;2022-12-29T08:40:18;98565.75;;;12.26;59.10
10587;BME280;5341;47.606;7.576;2022-12-29T08:42:50;98561.22;;;12.26;58.66
10587;BME280;5341;47.606;7.576;2022-12-29T08:45:19;98562.69;;;12.29;58.69
10587;BME280;5341;47.606;7.576;2022-12-29T08:47:51;98567.84;;;12.30;58.80
10587;BME280;5341;47.606;7.576;2022-12-29T08:50:39;98566.41;;;12.35;58.69
10587;BME280;5341;47.606;7.576;2022-12-29T08:53:25;98564.19;;;12.38;58.64
10587;BME280;5341;47.606;7.576;2022-12-29T08:56:00;98561.91;;;12.42;58.77
10587;BME280;5341;47.606;7.576;2022-12-29T08:58:33;98572.25;;;12.45;58.92
10587;BME280;5341;47.606;7.576;2022-12-29T09:01:09;98576.38;;;12.47;58.81
10587;BME280;5341;47.606;7.576;2022-12-29T09:03:42;98570.84;;;12.49;58.19
10587;BME280;5341;47.606;7.576;2022-12-29T09:06:18;98581.78;;;12.54;58.57
10587;BME280;5341;47.606;7.576;2022-12-29T09:08:54;98568.16;;;12.55;58.81
10587;BME280;5341;47.606;7.576;2022-12-29T09:11:34;98570.66;;;12.57;58.58
10587;BME280;5341;47.606;7.576;2022-12-29T09:14:17;98565.06;;;12.58;58.36
10587;BME280;5341;47.606;7.576;2022-12-29T09:16:51;98574.41;;;12.63;58.51
10587;BME280;5341;47.606;7.576;2022-12-29T09:19:38;98583.06;;;12.65;58.45
10587;BME280;5341;47.606;7.576;2022-12-29T09:22:07;98580.81;;;12.68;58.33
10587;BME280;5341;47.606;7.576;2022-12-29T09:24:37;98585.75;;;12.71;58.58
10587;BME280;5341;47.606;7.576;2022-12-29T09:27:05;98589.28;;;12.72;58.82
10587;BME280;5341;47.606;7.576;2022-12-29T09:29:36;98589.94;;;12.74;58.87
10587;BME280;5341;47.606;7.576;2022-12-29T09:32:10;98589.09;;;12.73;58.70
10587;BME280;5341;47.606;7.576;2022-12-29T09:34:44;98590.13;;;12.72;58.93
10587;BME280;5341;47.606;7.576;2022-12-29T09:37:14;98596.31;;;12.73;59.15
10587;BME280;5341;47.606;7.576;2022-12-29T09:39:45;98589.09;;;12.73;59.26
10587;BME280;5341;47.606;7.576;2022-12-29T09:42:29;98604.38;;;12.73;59.65
10587;BME280;5341;47.606;7.576;2022-12-29T09:45:17;98607.88;;;12.73;59.17
10587;BME280;5341;47.606;7.576;2022-12-29T09:47:53;98612.44;;;12.73;59.69
10587;BME280;5341;47.606;7.576;2022-12-29T09:50:28;98610.56;;;12.73;59.68
10587;BME280;5341;47.606;7.576;2022-12-29T09:53:10;98601.50;;;12.74;59.47
10587;BME280;5341;47.606;7.576;2022-12-29T09:55:48;98607.69;;;12.75;59.49
10587;BME280;5341;47.606;7.576;2022-12-29T09:58:24;98605.63;;;12.77;59.65
10587;BME280;5341;47.606;7.576;2022-12-29T10:01:06;98612.63;;;12.78;59.93
10587;BME280;5341;47.606;7.576;2022-12-29T10:03:45;98607.28;;;12.78;60.00
10587;BME280;5341;47.606;7.576;2022-12-29T10:06:21;98611.63;;;12.79;60.09
10587;BME280;5341;47.606;7.576;2022-12-29T10:08:57;98607.06;;;12.79;60.14
10587;BME280;5341;47.606;7.576;2022-12-29T10:11:42;98609.34;;;12.82;60.13
10587;BME280;5341;47.606;7.576;2022-12-29T10:14:29;98610.81;;;12.85;60.12
10587;BME280;5341;47.606;7.576;2022-12-29T10:17:13;98600.50;;;12.88;59.92
10587;BME280;5341;47.606;7.576;2022-12-29T10:20:01;98606.28;;;12.92;60.43
10587;BME280;5341;47.606;7.576;2022-12-29T10:22:48;98599.69;;;12.95;60.65
10587;BME280;5341;47.606;7.576;2022-12-29T10:25:39;98604.69;;;12.98;60.39
10587;BME280;5341;47.606;7.576;2022-12-29T10:28:19;98609.44;;;13.02;60.60
10587;BME280;5341;47.606;7.576;2022-12-29T10:30:53;98596.63;;;13.04;60.48
10587;BME280;5341;47.606;7.576;2022-12-29T10:33:39;98595.00;;;13.10;60.55
10587;BME280;5341;47.606;7.576;2022-12-29T10:36:16;98592.75;;;13.13;60.53
10587;BME280;5341;47.606;7.576;2022-12-29T10:38:54;98588.59;;;13.17;60.22
10587;BME280;5341;47.606;7.576;2022-12-29T10:41:34;98582.69;;;13.22;60.59
10587;BME280;5341;47.606;7.576;2022-12-29T10:44:04;98587.63;;;13.25;60.77
10587;BME280;5341;47.606;7.576;2022-12-29T10:46:35;98571.94;;;13.29;60.66
10587;BME280;5341;47.606;7.576;2022-12-29T10:49:17;98575.03;;;13.32;60.26
10587;BME280;5341;47.606;7.576;2022-12-29T10:51:58;98578.38;;;13.34;60.41
10587;BME280;5341;47.606;7.576;2022-12-29T10:54:33;98570.72;;;13.38;60.05
10587;BME280;5341;47.606;7.576;2022-12-29T10:57:11;98566.78;;;13.40;59.98
10587;BME280;5341;47.606;7.576;2022-12-29T10:59:54;98562.66;;;13.44;59.99
10587;BME280;5341;47.606;7.576;2022-12-29T11:02:44;98556.28;;;13.45;60.23
10587;BME280;5341;47.606;7.576;2022-12-29T11:05:26;98549.88;;;13.46;60.08
10587;BME280;5341;47.606;7.576;2022-12-29T11:08:10;98543.47;;;13.47;60.12
10587;BME280;5341;47.606;7.576;2022-12-29T11:10:46;98547.78;;;13.48;59.95
10587;BME280;5341;47.606;7.576;2022-12-29T11:13:15;98554.81;;;13.49;59.94
10587;BME280;5341;47.606;7.576;2022-12-29T11:15:47;98553.78;;;13.51;60.08
10587;BME280;5341;47.606;7.576;2022-12-29T11:18:22;98552.75;;;13.52;60.66
10587;BME280;5341;47.606;7.576;2022-12-29T11:20:53;98558.31;;;13.50;60.29
10587;BME280;5341;47.606;7.576;2022-12-29T11:23:25;98551.50;;;13.47;61.08
10587;BME280;5341;47.606;7.576;2022-12-29T11:26:15;98552.56;;;13.46;61.35
10587;BME280;5341;47.606;7.576;2022-12-29T11:28:45;98560.16;;;13.43;61.91
10587;BME280;5341;47.606;7.576;2022-12-29T11:31:21;98556.44;;;13.44;62.12
10587;BME280;5341;47.606;7.576;2022-12-29T11:33:49;98551.91;;;13.44;62.03
10587;BME280;5341;47.606;7.576;2022-12-29T11:36:21;98549.03;;;13.46;61.63
10587;BME280;5341;47.606;7.576;2022-12-29T11:38:51;98550.69;;;13.47;61.65
10587;BME280;5341;47.606;7.576;2022-12-29T11:41:22;98556.06;;;13.47;61.78
10587;BME280;5341;47.606;7.576;2022-12-29T11:43:50;98554.00;;;13.49;61.63
10587;BME280;5341;47.606;7.576;2022-12-29T11:46:21;98539.53;;;13.50;61.37
10587;BME280;5341;47.606;7.576;2022-12-29T11:48:52;98536.41;;;13.53;61.37
10587;BME280;5341;47.606;7.576;2022-12-29T11:51:28;98536.00;;;13.56;62.66
10587;BME280;5341;47.606;7.576;2022-12-29T11:54:00;98527.75;;;13.58;62.95
10587;BME280;5341;47.606;7.576;2022-12-29T11:56:35;98530.22;;;13.59;63.60
10587;BME280;5341;47.606;7.576;2022-12-29T12:02:36;98508.31;;;13.69;63.54
10587;BME280;5341;47.606;7.576;2022-12-29T12:05:16;98502.31;;;13.73;63.84
10587;BME280;5341;47.606;7.576;2022-12-29T12:07:51;98506.00;;;13.79;64.02
10587;BME280;5341;47.606;7.576;2022-12-29T12:10:24;98505.78;;;13.81;63.23
10587;BME280;5341;47.606;7.576;2022-12-29T12:12:58;98503.75;;;13.83;63.39
10587;BME280;5341;47.606;7.576;2022-12-29T12:15:39;98506.22;;;13.84;63.58
10587;BME280;5341;47.606;7.576;2022-12-29T12:18:11;98494.22;;;13.87;63.66
10587;BME280;5341;47.606;7.576;2022-12-29T12:20:47;98483.25;;;13.88;63.42
10587;BME280;5341;47.606;7.576;2022-12-29T12:26:15;98487.59;;;13.96;62.64
10587;BME280;5341;47.606;7.576;2022-12-29T12:28:51;98471.84;;;13.99;62.20
10587;BME280;5341;47.606;7.576;2022-12-29T12:31:37;98473.06;;;14.03;61.93
10587;BME280;5341;47.606;7.576;2022-12-29T12:34:13;98477.22;;;14.06;61.69
10587;BME280;5341;47.606;7.576;2022-12-29T12:36:56;98479.94;;;14.06;61.82
10587;BME280;5341;47.606;7.576;2022-12-29T12:39:41;98472.69;;;14.06;62.41
10587;BME280;5341;47.606;7.576;2022-12-29T12:42:23;98469.56;;;14.03;62.67
10587;BME280;5341;47.606;7.576;2022-12-29T12:45:09;98475.59;;;13.98;62.70
10587;BME280;5341;47.606;7.576;2022-12-29T12:47:55;98461.75;;;13.95;62.68
10587;BME280;5341;47.606;7.576;2022-12-29T12:50:38;98457.19;;;13.95;62.81
10587;BME280;5341;47.606;7.576;2022-12-29T12:53:35;98457.41;;;13.94;62.76
10587;BME280;5341;47.606;7.576;2022-12-29T12:56:40;98450.19;;;13.94;62.36
10587;BME280;5341;47.606;7.576;2022-12-29T12:59:19;98454.72;;;13.94;62.72
10587;BME280;5341;47.606;7.576;2022-12-29T13:01:59;98452.22;;;13.92;62.68
10587;BME280;5341;47.606;7.576;2022-12-29T13:04:45;98447.50;;;13.88;62.50
10587;BME280;5341;47.606;7.576;2022-12-29T13:07:23;98456.81;;;13.85;62.44
10587;BME280;5341;47.606;7.576;2022-12-29T13:10:13;98464.47;;;13.82;62.70
10587;BME280;5341;47.606;7.576;2022-12-29T13:12:51;98470.47;;;13.77;63.33
10587;BME280;5341;47.606;7.576;2022-12-29T13:15:30;98467.59;;;13.72;64.26
10587;BME280;5341;47.606;7.576;2022-12-29T13:18:10;98467.78;;;13.64;65.24
10587;BME280;5341;47.606;7.576;2022-12-29T13:20:58;98475.66;;;13.59;66.56
10587;BME280;5341;47.606;7.576;2022-12-29T13:23:34;98463.47;;;13.56;66.98
10587;BME280;5341;47.606;7.576;2022-12-29T13:26:14;98464.50;;;13.55;66.91
10587;BME280;5341;47.606;7.576;2022-12-29T13:28:53;98452.31;;;13.53;67.12
10587;BME280;5341;47.606;7.576;2022-12-29T13:31:29;98444.47;;;13.51;67.92
10587;BME280;5341;47.606;7.576;2022-12-29T13:34:05;98442.19;;;13.48;68.42
10587;BME280;5341;47.606;7.576;2022-12-29T13:36:40;98447.78;;;13.46;69.28
10587;BME280;5341;47.606;7.576;2022-12-29T13:39:13;98455.03;;;13.46;69.56
10587;BME280;5341;47.606;7.576;2022-12-29T13:41:45;98448.59;;;13.47;69.84
10587;BME280;5341;47.606;7.576;2022-12-29T13:44:21;98452.13;;;13.47;69.40
10587;BME280;5341;47.606;7.576;2022-12-29T13:46:51;98447.56;;;13.48;69.54
10587;BME280;5341;47.606;7.576;2022-12-29T13:49:27;98453.78;;;13.48;69.66
10587;BME280;5341;47.606;7.576;2022-12-29T13:52:11;98456.47;;;13.48;69.85
10587;BME280;5341;47.606;7.576;2022-12-29T13:54:47;98453.16;;;13.46;70.04
10587;BME280;5341;47.606;7.576;2022-12-29T13:57:35;98456.88;;;13.45;70.40
10587;BME280;5341;47.606;7.576;2022-12-29T14:00:16;98461.44;;;13.45;70.45
10587;BME280;5341;47.606;7.576;2022-12-29T14:03:01;98457.88;;;13.44;70.26
10587;BME280;5341;47.606;7.576;2022-12-29T14:05:45;98451.91;;;13.42;70.16
10587;BME280;5341;47.606;7.576;2022-12-29T14:08:36;98460.16;;;13.41;69.79
10587;BME280;5341;47.606;7.576;2022-12-29T14:11:08;98462.66;;;13.42;69.60
10587;BME280;5341;47.606;7.576;2022-12-29T14:13:45;98462.66;;;13.42;69.47
10587;BME280;5341;47.606;7.576;2022-12-29T14:16:39;98462.44;;;13.44;69.61
10587;BME280;5341;47.606;7.576;2022-12-29T14:19:16;98465.34;;;13.42;69.61
10587;BME280;5341;47.606;7.576;2022-12-29T14:21:52;98474.44;;;13.41;69.49
10587;BME280;5341;47.606;7.576;2022-12-29T14:24:40;98474.44;;;13.41;69.79
10587;BME280;5341;47.606;7.576;2022-12-29T14:30:49;98484.56;;;13.39;69.68
10587;BME280;5341;47.606;7.576;2022-12-29T14:33:19;98482.09;;;13.38;70.20
10587;BME280;5341;47.606;7.576;2022-12-29T14:35:49;98487.44;;;13.38;70.20